Latest Coastal Weather Observations for Cape Jaffa

IDS60701

Issued at 4:35 am CST Wednesday 3 September 2014 (issued every 10 minutes, with the page automatically refreshed every 10 minutes)

About coastal observations | Map of coastal stations | Coastal observations for SA | Marine services | Other Formats
Station Details ID: 026095 Name: THE LIMESTONE Lat: -36.97 Lon: 139.72 Height: 17.0 m
Data from the previous 72 hours. | See also: Recent months at Cape Jaffa
Date/Time
CST
Temp

°C
Wind Pressure Rain
since 9am
mm
Weather Cloud Vis
km
Sea
Height
m
Swell
Dir
 
Speed
knots
Gust
knots
hPa Trend Height
m
Period
s
Dir
03/04:30am 4.9 E 5 6 1024.6 - 0.6 - - - - - - -
03/04:00am 6.0 ENE 3 3 1024.6 - 0.6 - - - - - - -
03/03:30am 6.0 ENE 3 4 1024.6 - 0.6 - - - - - - -
03/03:00am 5.8 ENE 3 4 1024.9 - 0.6 - - - - - - -
03/02:30am 6.0 ENE 4 4 1025.1 - 0.6 - - - - - - -
03/02:00am 5.7 E 5 5 1025.6 - 0.6 - - - - - - -
03/01:30am 5.2 E 5 6 1025.9 - 0.6 - - - - - - -
03/01:00am 5.5 E 2 4 1026.2 - 0.6 - - - - - - -
03/12:30am 5.6 CALM 0 0 1026.3 - 0.6 - - - - - - -
03/12:00am 6.8 ESE 4 4 1026.2 - 0.6 - - - - - - -
 
Date/Time
CST
Temp

°C
Wind Pressure Rain
since 9am
mm
Weather Cloud Vis
km
Sea
Height
m
Swell
Dir
 
Speed
knots
Gust
knots
hPa Trend Height
m
Period
s
Dir
02/11:30pm 6.8 ESE 5 5 1026.4 - 0.6 - - - - - - -
02/11:00pm 6.9 ESE 4 5 1026.6 - 0.6 - - - - - - -
02/10:30pm 6.6 SSE 5 7 1026.9 - 0.6 - - - - - - -
02/10:00pm 8.1 S 6 9 1026.7 - 0.6 - - - - - - -
02/09:30pm 8.4 S 6 9 1026.6 - 0.6 - - - - - - -
02/09:00pm 8.2 S 6 8 1026.6 - 0.6 - - - - - - -
02/08:30pm 8.8 S 8 9 1026.4 - 0.6 - - - - - - -
02/08:00pm 9.6 S 10 12 1026.5 - 0.6 - - - - - - -
02/07:30pm 9.3 S 9 10 1026.4 - 0.6 - - - - - - -
02/07:00pm 9.8 S 11 13 1026.0 - 0.6 - - - - - - -
02/06:30pm 10.2 S 13 15 1025.9 - 0.6 - - - - - - -
02/06:00pm 10.9 S 13 16 1025.7 - 0.6 - - - - - - -
02/05:30pm 11.0 S 14 17 1025.5 - 0.6 - - - - - - -
02/05:00pm 11.0 S 14 18 1025.1 - 0.6 - - - - - - -
02/04:30pm 11.9 S 15 19 1024.6 - 0.6 - - - - - - -
02/04:00pm 12.2 S 16 20 1024.6 - 0.6 - - - - - - -
02/03:30pm 12.6 S 16 20 1024.3 - 0.6 - - - - - - -
02/03:00pm 11.7 SSW 16 21 1024.4 - 0.6 - - - - - - -
02/02:30pm 12.4 SSW 20 25 1024.1 - 0.6 - - - - - - -
02/02:00pm 13.3 SSW 14 18 1024.1 - 0.6 - - - - - - -
02/01:30pm 11.7 SSW 16 23 1024.1 - 0.4 - - - - - - -
02/01:00pm 13.9 SSW 14 19 1024.0 - 0.4 - - - - - - -
02/12:30pm 13.8 S 15 19 1024.2 - 0.4 - - - - - - -
02/12:00pm 13.8 S 15 19 1024.3 - 0.4 - - - - - - -
02/11:30am 14.1 S 14 19 1024.1 - 0.4 - - - - - - -
02/11:00am 13.3 S 14 18 1024.3 - 0.4 - - - - - - -
02/10:30am 12.9 S 6 10 1024.4 - 0.4 - - - - - - -
02/10:00am 10.9 S 6 8 1024.5 - 0.4 - - - - - - -
02/09:30am 11.7 SSW 11 14 1024.3 - 0.0 - - - - - - -
02/09:00am 10.8 SSE 8 11 1024.2 - 16.4 - - - - - - -
02/08:30am 11.5 S 12 16 1023.7 - 16.4 - - - - - - -
02/08:00am 10.0 SE 5 6 1023.3 - 16.4 - - - - - - -
02/07:30am 8.4 SE 3 5 1022.9 - 16.2 - - - - - - -
02/07:00am 8.4 SE 6 9 1022.4 - 16.2 - - - - - - -
02/06:30am 8.4 S 11 16 1022.1 - 16.2 - - - - - - -
02/06:00am 8.1 SE 7 10 1021.3 - 15.6 - - - - - - -
02/05:30am 9.1 S 8 11 1020.6 - 15.6 - - - - - - -
02/05:00am 10.0 S 10 17 1019.9 - 15.6 - - - - - - -
02/04:30am 10.6 S 11 19 1019.4 - 15.6 - - - - - - -
02/04:00am 10.1 SSW 13 17 1019.0 - 15.6 - - - - - - -
02/03:30am 9.7 SW 8 12 1018.7 - 15.6 - - - - - - -
02/03:00am 8.7 S 9 12 1018.7 - 15.6 Rain - - - - - -
02/02:40am 9.8 SSW 15 24 1018.6 - 15.2 - - - - - - -
02/02:30am 9.3 SSW 11 13 1018.6 - 15.2 - - - - - - -
02/02:00am 8.2 S 7 9 1018.4 - 15.2 - - - - - - -
02/01:30am 9.5 S 15 19 1018.1 - 15.2 - - - - - - -
02/01:00am 8.9 SSW 10 21 1018.1 - 13.0 - - - - - - -
02/12:30am 8.9 SSW 9 11 1017.7 - 11.4 - - - - - - -
02/12:00am 9.1 SSW 6 10 1017.5 - 11.4 Rain - - - - - -
 
Date/Time
CST
Temp

°C
Wind Pressure Rain
since 9am
mm
Weather Cloud Vis
km
Sea
Height
m
Swell
Dir
 
Speed
knots
Gust
knots
hPa Trend Height
m
Period
s
Dir
01/11:30pm 8.5 WSW 9 11 1017.5 - 9.6 - - - - - - -
01/11:00pm 7.7 SSW 2 3 1017.3 - 6.4 - - - - - - -
01/10:30pm 7.7 S 5 6 1016.9 - 6.2 - - - - - - -
01/10:00pm 8.3 SSW 10 13 1016.9 - 5.4 - - - - - - -
01/09:30pm 8.9 SSW 12 16 1016.5 - 3.8 - - - - - - -
01/09:18pm 8.1 SSW 15 22 1016.5 - 3.8 - - - - - - -
01/09:00pm 10.1 SSW 8 10 1016.0 - 1.6 - - - - - - -
01/08:30pm 10.1 SSW 10 13 1015.9 - 1.6 - - - - - - -
01/08:00pm 9.5 SSW 13 16 1015.4 - 1.6 - - - - - - -
01/07:30pm 10.7 WSW 12 18 1015.0 - 1.4 - - - - - - -
01/07:00pm 11.0 SW 8 10 1014.7 - 1.2 - - - - - - -
01/06:30pm 11.5 SW 11 16 1014.1 - 1.2 - - - - - - -
01/06:00pm 11.4 WSW 9 12 1013.8 - 1.2 - - - - - - -
01/05:30pm 11.3 WSW 10 13 1013.6 - 1.2 - - - - - - -
01/05:00pm 12.4 WSW 12 17 1013.1 - 1.2 - - - - - - -
01/04:30pm 12.5 SW 12 17 1012.8 - 1.2 - - - - - - -
01/04:00pm 12.9 WSW 13 16 1012.6 - 1.2 - - - - - - -
01/03:30pm 13.2 SW 14 18 1012.3 - 1.2 - - - - - - -
01/03:00pm 13.1 SW 13 17 1012.1 - 1.2 - - - - - - -
01/02:30pm 13.7 SW 14 20 1012.0 - 1.2 - - - - - - -
01/02:00pm 13.2 SSW 13 16 1011.9 - 1.2 - - - - - - -
01/01:30pm 12.9 SSW 16 21 1011.6 - 1.2 - - - - - - -
01/01:00pm 13.1 SW 15 20 1011.6 - 1.2 - - - - - - -
01/12:30pm 11.8 WSW 15 22 1011.8 - 1.2 - - - - - - -
01/12:00pm 13.5 SW 13 20 1011.6 - 0.4 Recent precip. - - - - - -
01/11:30am 12.6 SW 15 24 1011.5 - 0.0 - - - - - - -
01/11:00am 12.7 SSW 19 24 1011.4 - 0.0 - - - - - - -
01/10:55am 13.1 SSW 20 24 1011.3 - 0.0 - - - - - - -
01/10:30am 13.6 WSW 15 20 1011.3 - 0.0 - - - - - - -
01/10:00am 13.7 WSW 14 16 1011.2 - 0.0 - - - - - - -
01/09:30am 12.6 W 13 17 1011.0 - 0.0 - - - - - - -
01/09:00am 12.3 W 11 15 1010.9 - 5.8 Recent precip. - - - - - -
01/08:30am 12.1 WSW 9 12 1010.7 - 5.4 - - - - - - -
01/08:00am 12.6 W 8 11 1010.5 - 4.8 - - - - - - -
01/07:30am 12.3 W 9 11 1010.1 - 4.8 - - - - - - -
01/07:00am 12.0 W 8 10 1009.8 - 4.8 - - - - - - -
01/06:30am 12.0 W 9 12 1009.7 - 4.8 - - - - - - -
01/06:00am 12.0 W 9 12 1009.4 - 4.8 - - - - - - -
01/05:30am 12.0 WSW 11 13 1009.1 - 4.8 - - - - - - -
01/05:00am 12.1 WSW 12 15 1008.9 - 4.8 - - - - - - -
01/04:30am 12.6 WSW 13 16 1008.5 - 4.8 - - - - - - -
01/04:00am 13.1 WSW 12 16 1008.3 - 4.8 - - - - - - -
01/03:30am 13.4 W 10 14 1008.0 - 4.8 - - - - - - -
01/03:00am 13.8 WNW 10 14 1008.4 - 4.8 - - - - - - -
01/02:30am 13.4 NW 8 11 1008.5 - 4.8 - - - - - - -
01/02:00am 13.2 NW 10 13 1008.6 - 4.8 - - - - - - -
01/01:30am 12.8 NW 9 13 1009.1 - 4.8 - - - - - - -
01/01:00am 13.0 NW 10 14 1009.3 - 4.8 - - - - - - -
01/12:30am 13.0 WNW 7 8 1008.8 - 4.8 - - - - - - -
01/12:00am 13.2 WNW 8 10 1009.3 - 3.4 Rain - - - - - -
 
Date/Time
CST
Temp

°C
Wind Pressure Rain
since 9am
mm
Weather Cloud Vis
km
Sea
Height
m
Swell
Dir
 
Speed
knots
Gust
knots
hPa Trend Height
m
Period
s
Dir
31/11:30pm 13.3 WNW 10 14 1009.0 - 2.4 - - - - - - -
31/11:00pm 13.3 W 6 10 1008.6 - 1.8 - - - - - - -
31/10:30pm 13.5 WNW 8 13 1009.4 - 0.6 - - - - - - -
31/10:00pm 14.2 W 10 12 1009.2 - 0.0 - - - - - - -
31/09:30pm 14.7 WNW 8 11 1009.4 - 0.0 - - - - - - -
31/09:00pm 14.2 NW 6 8 1008.9 - 0.0 - - - - - - -
31/08:30pm 13.8 N 5 7 1009.0 - 0.0 - - - - - - -
31/08:00pm 13.8 NNW 5 6 1009.3 - 0.0 - - - - - - -
31/07:30pm 13.9 NNW 5 5 1009.3 - 0.0 - - - - - - -
31/07:00pm 14.2 NNW 5 6 1009.6 - 0.0 - - - - - - -
31/06:30pm 14.0 NNW 5 7 1009.8 - 0.0 - - - - - - -
31/06:00pm 15.0 WNW 5 7 1009.5 - 0.0 - - - - - - -
31/05:30pm 15.4 WNW 8 11 1009.8 - 0.0 - - - - - - -
31/05:00pm 15.9 NNW 8 10 1009.4 - 0.0 - - - - - - -
31/04:30pm 16.7 NNW 10 13 1009.4 - 0.0 - - - - - - -
31/04:00pm 17.8 N 11 14 1008.1 - 0.0 - - - - - - -
31/03:30pm 16.9 N 12 15 1009.5 - 0.0 - - - - - - -
31/03:00pm 17.1 N 12 16 1009.7 - 0.0 - - - - - - -
31/02:30pm 17.6 NNW 16 21 1010.5 - 0.0 - - - - - - -
31/02:00pm 17.8 N 14 19 1010.5 - 0.0 - - - - - - -
31/01:30pm 18.5 N 16 20 1010.7 - 0.0 - - - - - - -
31/01:00pm 17.9 N 15 20 1010.8 - 0.0 - - - - - - -
31/12:30pm 18.4 N 17 24 1011.2 - 0.0 - - - - - - -
31/12:00pm 18.0 N 15 19 1011.7 - 0.0 - - - - - - -
31/11:30am 16.9 N 15 21 1012.1 - 0.0 - - - - - - -
31/11:00am 16.4 N 15 19 1012.6 - 0.0 - - - - - - -
31/10:30am 15.9 N 13 17 1012.8 - 0.0 - - - - - - -
31/10:00am 15.9 N 13 17 1013.2 - 0.0 - - - - - - -
31/09:30am 15.3 N 12 16 1013.6 - 0.0 - - - - - - -
31/09:00am 15.3 N 14 18 1013.8 - 0.0 - - - - - - -
31/08:30am 14.6 N 13 17 1013.9 - 0.0 - - - - - - -
31/08:00am 13.9 NNE 11 14 1014.0 - 0.0 - - - - - - -
31/07:30am 13.2 NNE 10 13 1014.3 - 0.0 - - - - - - -
31/07:00am 12.9 NNE 9 12 1014.4 - 0.0 - - - - - - -
31/06:30am 12.9 NNE 9 11 1014.3 - 0.0 - - - - - - -
31/06:00am 12.0 NE 8 10 1014.3 - 0.0 - - - - - - -
31/05:30am 10.9 ENE 5 6 1014.6 - 0.0 - - - - - - -
31/05:00am 10.8 NE 5 7 1014.6 - 0.0 - - - - - - -

Other Formats:

Comma delimited format used in spreadsheet applications
http://www.bom.gov.au/fwo/IDS60701/IDS60701.94813.axf

JavaScript Object Notation format (JSON) in row-major order
http://www.bom.gov.au/fwo/IDS60701/IDS60701.94813.json